Time;durP1;ratioP1;P1;durP2;ratioP2;P2;SDS_P1;SDS_P2;PMS_P1;PMS_P2;Temp;Humidity;BMP_temperature;BMP_pressure;BME280_temperature;BME280_humidity;BME280_pressure;Samples;Min_cycle;Max_cycle;Signal;HPM_P1;HPM_P2
2021/03/27 00:00:35;;;;;;;6.65;3.95;;;;;;;12.80;32.17;100818.25;5116714;27;20089;-83
2021/03/27 00:03:09;;;;;;;5.65;3.60;;;;;;;12.77;32.31;100824.88;5115348;27;20239;-82
2021/03/27 00:05:41;;;;;;;6.07;3.92;;;;;;;12.72;32.46;100835.44;5110627;27;20050;-82
2021/03/27 00:08:18;;;;;;;6.40;4.25;;;;;;;12.67;32.69;100836.91;5113501;28;20040;-83
2021/03/27 00:11:05;;;;;;;6.18;4.07;;;;;;;12.61;32.59;100848.44;5093031;28;20040;-83
2021/03/27 00:13:37;;;;;;;5.05;3.70;;;;;;;12.53;32.63;100854.66;5116698;28;20039;-82
2021/03/27 00:16:13;;;;;;;5.47;3.80;;;;;;;12.48;33.03;100867.09;5126641;27;20568;-81
2021/03/27 00:18:47;;;;;;;5.20;4.03;;;;;;;12.41;32.27;100878.66;5105646;28;20043;-82
2021/03/27 00:21:23;;;;;;;5.13;3.90;;;;;;;12.37;33.21;100890.91;5101762;28;20122;-82
2021/03/27 00:23:56;;;;;;;5.40;3.63;;;;;;;12.29;32.81;100896.25;5121024;28;20047;-82
2021/03/27 00:26:30;;;;;;;6.95;4.95;;;;;;;12.23;33.82;100909.69;5121652;28;20067;-83
2021/03/27 00:29:03;;;;;;;6.70;4.63;;;;;;;12.19;33.47;100916.44;5117691;28;20043;-82
2021/03/27 00:31:38;;;;;;;5.78;3.95;;;;;;;12.14;33.51;100910.53;5107988;27;20081;-81
2021/03/27 00:34:09;;;;;;;5.57;4.25;;;;;;;12.08;33.62;100924.81;5121372;28;20044;-82
2021/03/27 00:36:41;;;;;;;5.53;3.70;;;;;;;12.03;33.47;100916.97;5107792;28;20107;-82
2021/03/27 00:39:15;;;;;;;5.38;3.70;;;;;;;11.99;34.32;100910.06;5126594;27;20606;-81
2021/03/27 00:41:49;;;;;;;4.65;3.40;;;;;;;11.93;34.27;100916.97;5133779;27;20040;-81
2021/03/27 00:44:18;;;;;;;4.50;3.22;;;;;;;11.85;34.01;100922.25;5118953;28;20387;-83
2021/03/27 00:46:47;;;;;;;4.32;3.00;;;;;;;11.77;33.83;100919.31;5116968;28;20067;-81
2021/03/27 00:49:19;;;;;;;5.13;3.60;;;;;;;11.69;34.28;100941.06;5112263;28;20043;-82
2021/03/27 00:51:51;;;;;;;5.07;3.53;;;;;;;11.60;34.22;100947.41;5123093;27;20043;-81
2021/03/27 00:54:25;;;;;;;4.60;3.38;;;;;;;11.52;34.54;100956.31;5103485;27;20047;-82
2021/03/27 00:57:05;;;;;;;4.80;3.72;;;;;;;11.45;35.00;100963.31;5119966;28;20044;-82
2021/03/27 00:59:39;;;;;;;4.88;3.20;;;;;;;11.39;34.85;100984.91;5142478;27;20053;-82
2021/03/27 01:02:15;;;;;;;4.63;2.70;;;;;;;11.31;34.15;100982.84;5108256;28;20043;-81
2021/03/27 01:05:06;;;;;;;3.50;2.47;;;;;;;11.25;34.73;100984.25;5124954;27;20141;-83
2021/03/27 01:07:54;;;;;;;3.78;2.28;;;;;;;11.17;34.57;100986.78;5125432;28;20090;-82
2021/03/27 01:10:46;;;;;;;3.58;2.50;;;;;;;11.14;34.90;100972.47;5114886;27;20047;-81
2021/03/27 01:13:29;;;;;;;3.28;2.13;;;;;;;11.06;35.25;100977.75;5141314;27;20047;-80
2021/03/27 01:16:03;;;;;;;3.20;1.80;;;;;;;11.01;35.25;100971.81;5122796;28;20039;-82
2021/03/27 01:18:36;;;;;;;2.30;1.60;;;;;;;10.96;35.06;100983.16;5093950;27;20049;-82
2021/03/27 01:21:08;;;;;;;1.92;1.40;;;;;;;10.86;34.64;100993.16;5109997;27;20119;-81
2021/03/27 01:23:36;;;;;;;1.98;1.20;;;;;;;10.81;34.83;100987.16;5138827;27;20038;-81
2021/03/27 01:26:08;;;;;;;2.03;1.13;;;;;;;10.76;35.09;100993.03;5091093;28;20582;-82
2021/03/27 01:28:41;;;;;;;1.73;1.00;;;;;;;10.68;35.34;100998.31;5101468;27;20054;-81
2021/03/27 01:31:15;;;;;;;2.53;1.00;;;;;;;10.66;35.42;101004.88;5097304;28;20054;-82
2021/03/27 01:34:01;;;;;;;1.98;1.13;;;;;;;10.60;36.14;100998.09;5089439;28;20536;-82
2021/03/27 01:36:38;;;;;;;1.35;0.98;;;;;;;10.52;35.51;100998.72;5122504;27;20074;-81
2021/03/27 01:39:11;;;;;;;2.53;1.20;;;;;;;10.49;35.86;101006.31;5115043;28;20075;-82
2021/03/27 01:41:47;;;;;;;;;;;;;;;10.19;35.79;101017.06;5135563;27;20043;-81
2021/03/27 01:44:39;;;;;;;0.93;0.80;;;;;;;10.36;35.73;101006.47;5109126;28;19932;-82
2021/03/27 01:47:14;;;;;;;3.33;1.00;;;;;;;10.34;35.81;101005.72;5102958;28;20046;-81
2021/03/27 01:50:10;;;;;;;2.20;0.73;;;;;;;10.28;35.97;101017.19;5104154;28;20394;-81
2021/03/27 01:52:53;;;;;;;2.53;0.90;;;;;;;10.24;36.18;101009.34;5138980;27;20452;-82
2021/03/27 01:55:33;;;;;;;0.95;0.70;;;;;;;10.20;35.89;101014.22;5151703;27;20039;-82
2021/03/27 01:58:08;;;;;;;2.45;0.85;;;;;;;10.15;35.44;101025.50;5148328;27;20042;-82
2021/03/27 02:00:44;;;;;;;2.00;0.80;;;;;;;10.09;35.62;101026.03;5131039;27;20084;-81
2021/03/27 02:03:18;;;;;;;2.75;0.95;;;;;;;10.07;35.67;101024.41;5115726;28;20043;-81
2021/03/27 02:05:52;;;;;;;2.83;0.90;;;;;;;10.01;35.61;101027.63;5134563;27;20036;-81
2021/03/27 02:08:26;;;;;;;2.20;1.20;;;;;;;9.96;35.82;101033.47;5098711;28;20051;-81
2021/03/27 02:11:06;;;;;;;1.98;1.17;;;;;;;9.94;36.39;101035.47;5135610;27;20050;-82
2021/03/27 02:13:45;;;;;;;2.55;1.00;;;;;;;9.88;36.43;101035.06;5111885;28;20040;-82
2021/03/27 02:16:21;;;;;;;2.83;0.80;;;;;;;9.84;36.20;101030.88;5116597;28;20043;-81
2021/03/27 02:19:08;;;;;;;2.25;0.80;;;;;;;9.80;36.42;101026.63;5113078;27;20043;-82
2021/03/27 02:21:46;;;;;;;1.98;0.73;;;;;;;9.73;36.41;101035.31;5127713;27;20039;-82
2021/03/27 02:24:58;;;;;;;3.10;1.00;;;;;;;9.62;37.03;101056.28;5111849;27;20059;-82
2021/03/27 02:27:35;;;;;;;2.08;0.82;;;;;;;9.60;36.47;101052.78;5152518;27;20076;-80
2021/03/27 02:30:15;;;;;;;1.52;0.95;;;;;;;9.58;37.03;101052.03;5137076;27;20438;-82
2021/03/27 02:33:11;;;;;;;2.40;1.08;;;;;;;9.51;37.31;101051.66;5146319;27;20055;-83
2021/03/27 02:35:52;;;;;;;3.05;1.00;;;;;;;9.47;36.96;101055.59;5108322;27;20047;-81
2021/03/27 02:38:29;;;;;;;1.33;0.80;;;;;;;9.44;37.33;101050.41;5111255;27;20042;-81
2021/03/27 02:41:14;;;;;;;2.47;0.93;;;;;;;9.37;37.78;101050.00;5131933;27;20093;-80
2021/03/27 02:43:51;;;;;;;3.72;1.10;;;;;;;9.33;36.98;101048.50;5082623;28;20047;-81
2021/03/27 02:46:32;;;;;;;2.33;1.30;;;;;;;9.29;37.47;101062.53;5109454;27;20043;-81
2021/03/27 02:49:33;;;;;;;2.92;1.10;;;;;;;9.24;38.13;101056.53;5115240;27;20043;-81
2021/03/27 02:52:18;;;;;;;2.38;1.00;;;;;;;9.20;37.77;101082.34;5120211;27;20039;-81
2021/03/27 02:54:58;;;;;;;4.28;1.30;;;;;;;9.16;37.92;101076.22;5121258;27;20044;-81
2021/03/27 02:57:35;;;;;;;3.25;1.40;;;;;;;9.10;38.24;101082.16;5100406;27;20422;-81
2021/03/27 03:00:19;;;;;;;2.80;1.48;;;;;;;9.06;38.27;101085.22;5116045;28;20052;-81
2021/03/27 03:02:52;;;;;;;3.20;1.40;;;;;;;8.99;37.92;101085.72;5105715;28;20035;-82
2021/03/27 03:05:37;;;;;;;2.60;1.63;;;;;;;8.96;38.57;101090.56;5094772;27;20035;-81
2021/03/27 03:08:15;;;;;;;3.25;1.52;;;;;;;8.93;38.01;101107.13;5117266;27;20046;-82
2021/03/27 03:10:56;;;;;;;3.30;1.50;;;;;;;8.90;38.48;101110.09;5108934;28;20036;-82
2021/03/27 03:13:30;;;;;;;3.58;1.50;;;;;;;8.87;37.96;101119.41;5125517;27;20031;-81
2021/03/27 03:16:16;;;;;;;5.13;1.73;;;;;;;8.84;37.80;101121.47;5122924;27;20509;-80
2021/03/27 03:18:55;;;;;;;4.40;1.83;;;;;;;8.80;38.49;101125.44;5144088;27;20501;-81
2021/03/27 03:21:27;;;;;;;4.57;1.80;;;;;;;8.78;38.06;101114.63;5155775;27;20053;-82
2021/03/27 03:23:59;;;;;;;3.80;1.40;;;;;;;8.76;38.00;101122.03;5103618;27;20043;-82
2021/03/27 03:26:36;;;;;;;4.85;2.17;;;;;;;8.77;38.68;101112.88;5137878;27;20051;-81
2021/03/27 03:29:12;;;;;;;3.08;1.67;;;;;;;8.76;38.50;101132.94;5129029;27;20035;-80
2021/03/27 03:32:01;;;;;;;3.50;1.65;;;;;;;8.74;38.65;101136.78;5104531;27;20471;-81
2021/03/27 03:34:46;;;;;;;3.05;1.60;;;;;;;8.73;38.83;101140.47;5108638;27;20051;-80
2021/03/27 03:37:21;;;;;;;4.10;2.08;;;;;;;8.71;38.15;101142.47;5117571;27;20071;-80
2021/03/27 03:40:08;;;;;;;5.90;2.60;;;;;;;8.68;38.82;101143.56;5107746;27;20039;-81
2021/03/27 03:43:02;;;;;;;5.00;2.20;;;;;;;8.65;39.01;101149.22;5116419;27;20122;-80
2021/03/27 03:45:42;;;;;;;3.67;1.80;;;;;;;8.68;38.53;101156.31;5111812;27;20082;-80
2021/03/27 03:48:41;;;;;;;4.57;2.00;;;;;;;8.64;38.48;101142.06;5120379;27;20424;-81
2021/03/27 03:51:21;;;;;;;4.75;1.85;;;;;;;8.66;38.52;101150.97;5106501;28;20432;-82
2021/03/27 03:54:04;;;;;;;5.57;2.40;;;;;;;8.66;38.63;101152.84;5097086;28;20040;-80
2021/03/27 03:56:38;;;;;;;6.20;2.40;;;;;;;8.63;38.20;101149.38;5129384;27;20506;-80
2021/03/27 03:59:35;;;;;;;6.03;2.40;;;;;;;8.63;38.87;101164.84;5093906;27;20085;-80
2021/03/27 04:02:16;;;;;;;4.35;2.30;;;;;;;8.65;38.70;101157.41;5111141;28;20039;-81
2021/03/27 04:05:04;;;;;;;6.57;2.50;;;;;;;8.63;38.11;101173.91;5099419;27;20047;-81
2021/03/27 04:07:45;;;;;;;3.92;2.00;;;;;;;8.65;38.21;101162.88;5111617;22;20149;-86
2021/03/27 04:10:16;;;;;;;12.02;2.50;;;;;;;8.65;38.12;101168.31;5108624;28;20067;-86
2021/03/27 04:12:47;;;;;;;6.07;2.17;;;;;;;8.64;38.06;101172.06;5095682;28;20101;-86
2021/03/27 04:15:24;;;;;;;6.72;2.47;;;;;;;8.65;38.55;101168.31;5083773;27;20055;-84
2021/03/27 04:18:01;;;;;;;4.35;2.15;;;;;;;8.63;38.33;101164.84;5100376;28;20458;-85
2021/03/27 04:20:44;;;;;;;4.38;1.75;;;;;;;8.63;38.23;101171.19;5102500;28;20496;-83
2021/03/27 04:23:20;;;;;;;3.95;1.90;;;;;;;8.61;38.49;101164.97;5113399;28;20035;-84
2021/03/27 04:26:04;;;;;;;3.72;1.73;;;;;;;8.59;38.21;101180.56;5090614;28;20125;-84
2021/03/27 04:29:10;;;;;;;6.47;1.85;;;;;;;8.55;38.39;101176.34;5114094;28;20122;-83
2021/03/27 04:32:02;;;;;;;4.35;1.52;;;;;;;8.52;38.10;101179.28;5115417;28;20045;-84
2021/03/27 04:34:36;;;;;;;3.50;1.70;;;;;;;8.52;38.21;101181.13;5096913;28;20137;-85
2021/03/27 04:37:09;;;;;;;4.43;1.60;;;;;;;8.50;38.06;101177.63;5101951;28;20490;-85
2021/03/27 04:39:50;;;;;;;4.63;1.70;;;;;;;8.52;38.26;101179.28;5139043;28;20039;-86
2021/03/27 04:42:25;;;;;;;3.28;1.60;;;;;;;8.50;37.84;101172.16;5135075;28;20062;-83
2021/03/27 04:45:07;;;;;;;2.90;1.70;;;;;;;8.54;38.35;101179.16;5092859;28;20062;-85
2021/03/27 04:47:39;;;;;;;5.82;1.52;;;;;;;8.51;38.07;101193.00;5104187;28;20070;-85
2021/03/27 04:50:20;;;;;;;4.15;1.50;;;;;;;8.51;37.84;101187.56;5084245;28;20036;-86
2021/03/27 04:52:59;;;;;;;4.63;1.60;;;;;;;8.50;37.39;101189.41;5117855;27;20089;-84
2021/03/27 04:55:35;;;;;;;4.63;1.40;;;;;;;8.53;38.13;101197.38;5091029;28;20039;-84
2021/03/27 04:58:18;;;;;;;4.18;1.27;;;;;;;8.54;37.97;101203.69;5120077;28;20039;-84
2021/03/27 05:00:52;;;;;;;;;;;;;;;8.25;38.54;101206.63;5074850;28;20458;-84
2021/03/27 05:03:23;;;;;;;;;;;;;;;8.19;38.51;101201.63;5066266;28;19920;-85
2021/03/27 05:06:08;;;;;;;3.38;1.30;;;;;;;8.43;37.91;101215.38;5094062;28;19927;-83
2021/03/27 05:09:06;;;;;;;4.00;1.30;;;;;;;8.45;37.87;101220.72;5098445;28;20114;-85
2021/03/27 05:11:57;;;;;;;4.78;1.35;;;;;;;8.43;38.06;101223.56;5077687;28;20074;-85
2021/03/27 05:14:44;;;;;;;4.15;1.40;;;;;;;8.40;38.35;101223.72;5109870;28;20039;-86
2021/03/27 05:17:21;;;;;;;2.75;1.60;;;;;;;8.38;37.51;101219.38;5103517;28;20490;-84
2021/03/27 05:19:56;;;;;;;4.20;1.67;;;;;;;8.37;37.92;101237.59;5080550;28;20067;-85
2021/03/27 05:22:36;;;;;;;3.00;1.23;;;;;;;8.35;38.34;101239.56;5081519;28;20110;-86
2021/03/27 05:25:19;;;;;;;4.68;1.45;;;;;;;8.33;38.13;101237.91;5084924;28;20459;-88
2021/03/27 05:28:03;;;;;;;5.88;1.52;;;;;;;8.30;38.61;101249.91;5091706;28;20054;-84
2021/03/27 05:30:45;;;;;;;4.95;1.55;;;;;;;8.27;38.33;101239.22;5111578;28;20085;-86
2021/03/27 05:33:31;;;;;;;5.15;1.30;;;;;;;8.25;38.61;101235.72;5101930;28;20352;-86
2021/03/27 05:36:17;;;;;;;5.45;1.40;;;;;;;8.24;38.53;101240.31;5110941;28;20070;-84
2021/03/27 05:38:50;;;;;;;5.45;1.40;;;;;;;8.24;38.26;101253.06;5092797;28;20044;-83
2021/03/27 05:41:50;;;;;;;3.35;1.42;;;;;;;8.20;38.71;101244.25;5093222;28;20522;-84
2021/03/27 05:45:08;;;;;;;3.20;1.35;;;;;;;8.17;38.76;101249.88;5103887;28;20105;-83
2021/03/27 05:48:22;;;;;;;4.85;1.90;;;;;;;8.17;38.71;101252.63;5049975;28;20044;-84
2021/03/27 05:51:44;;;;;;;4.05;1.33;;;;;;;8.15;38.68;101259.16;5074928;28;20048;-84
2021/03/27 05:54:48;;;;;;;3.72;1.30;;;;;;;8.18;38.81;101258.94;5095559;28;20398;-84
2021/03/27 05:57:31;;;;;;;5.00;1.90;;;;;;;8.19;38.59;101255.25;5114469;28;20493;-83
2021/03/27 06:00:25;;;;;;;3.67;1.25;;;;;;;8.18;39.00;101264.41;5097535;28;20076;-84
2021/03/27 06:03:22;;;;;;;4.10;1.50;;;;;;;8.20;38.70;101263.31;5067918;28;20138;-85
2021/03/27 06:06:10;;;;;;;4.65;1.25;;;;;;;8.21;38.68;101266.91;5089031;28;20075;-83
2021/03/27 06:08:50;;;;;;;3.03;1.20;;;;;;;8.23;38.63;101273.09;5110259;28;20036;-87
2021/03/27 06:11:38;;;;;;;3.33;1.55;;;;;;;8.26;38.93;101272.91;5076608;28;20518;-90
2021/03/27 06:14:33;;;;;;;5.20;1.50;;;;;;;8.28;38.65;101264.63;5093217;28;20097;-85
2021/03/27 06:17:20;;;;;;;5.78;1.45;;;;;;;8.28;38.74;101279.13;5103843;28;20031;-87
2021/03/27 06:20:24;;;;;;;4.65;1.55;;;;;;;8.28;39.10;101281.84;5090220;28;20052;-87
2021/03/27 06:23:17;;;;;;;5.63;1.70;;;;;;;8.31;39.06;101284.38;5055409;28;20101;-89
2021/03/27 06:25:59;;;;;;;5.80;1.48;;;;;;;8.34;39.54;101289.59;5098212;28;20048;-87
2021/03/27 06:29:00;;;;;;;4.88;1.63;;;;;;;8.37;39.09;101294.84;5104054;28;20516;-86
2021/03/27 06:31:41;;;;;;;6.57;1.50;;;;;;;8.39;39.00;101294.75;5097244;28;20094;-83
2021/03/27 06:34:56;;;;;;;2.75;1.30;;;;;;;8.40;39.25;101299.19;5090761;28;20059;-84
2021/03/27 06:37:43;;;;;;;4.25;1.50;;;;;;;8.44;39.15;101308.94;5041878;27;20085;-85
2021/03/27 06:40:41;;;;;;;5.35;1.73;;;;;;;8.41;39.29;101317.28;5099271;28;20130;-85
2021/03/27 06:43:24;;;;;;;3.78;1.30;;;;;;;8.43;39.28;101318.97;5098095;28;20119;-90
2021/03/27 06:46:15;;;;;;;4.53;1.40;;;;;;;8.42;39.44;101322.63;5089250;28;20143;-84
2021/03/27 06:49:24;;;;;;;4.05;1.48;;;;;;;8.41;39.36;101326.34;5076668;28;20048;-88
2021/03/27 06:52:27;;;;;;;3.03;1.15;;;;;;;8.39;39.13;101328.31;5097212;28;20040;-85
2021/03/27 06:55:24;;;;;;;2.83;1.00;;;;;;;8.31;39.45;101336.16;5097672;28;20380;-87
2021/03/27 06:58:20;;;;;;;2.35;1.30;;;;;;;8.33;39.41;101353.25;5089425;28;20070;-87
2021/03/27 07:01:05;;;;;;;2.35;1.30;;;;;;;8.30;39.57;101355.34;5095290;28;20050;-85
2021/03/27 07:04:26;;;;;;;3.85;1.33;;;;;;;8.24;39.45;101356.63;5109394;28;20043;-84
2021/03/27 07:07:12;;;;;;;4.63;1.27;;;;;;;8.23;39.54;101354.88;5058881;28;20084;-85
2021/03/27 07:10:34;;;;;;;4.03;1.30;;;;;;;8.19;39.70;101366.97;5099064;28;20585;-85
2021/03/27 07:13:34;;;;;;;3.90;1.33;;;;;;;8.16;40.17;101370.78;5003561;28;20175;-83
2021/03/27 07:16:24;;;;;;;3.40;1.20;;;;;;;8.16;39.99;101378.94;5035657;28;20051;-85
2021/03/27 07:19:38;;;;;;;4.13;1.02;;;;;;;8.14;39.80;101391.81;5123294;27;20126;-83
2021/03/27 07:22:26;;;;;;;2.72;1.10;;;;;;;8.13;39.38;101394.66;5107637;28;20395;-86
2021/03/27 07:25:27;;;;;;;2.63;0.98;;;;;;;8.13;39.54;101411.88;5080106;28;20111;-83
2021/03/27 07:28:13;;;;;;;1.45;0.80;;;;;;;8.10;39.55;101416.66;5104301;28;20093;-85
2021/03/27 07:31:08;;;;;;;2.42;0.82;;;;;;;8.08;39.01;101432.22;5097561;28;20039;-83
2021/03/27 07:33:54;;;;;;;2.38;0.73;;;;;;;8.05;39.05;101429.72;5094264;28;20135;-85
2021/03/27 07:37:15;;;;;;;1.30;0.60;;;;;;;8.00;38.97;101440.91;5114771;28;20039;-82
2021/03/27 07:40:06;;;;;;;1.63;0.68;;;;;;;7.98;39.17;101447.44;4983859;28;20049;-83
2021/03/27 07:43:03;;;;;;;2.22;0.75;;;;;;;7.92;39.48;101440.53;5029960;28;20049;-83
2021/03/27 07:46:09;;;;;;;1.80;0.70;;;;;;;7.92;38.93;101442.38;5078500;28;20059;-84
2021/03/27 07:49:09;;;;;;;2.10;0.70;;;;;;;7.91;39.14;101448.81;5109682;28;20068;-82
2021/03/27 07:52:02;;;;;;;2.72;1.13;;;;;;;7.87;39.22;101448.16;5086197;28;20048;-82
2021/03/27 07:54:58;;;;;;;3.15;0.90;;;;;;;7.85;39.25;101444.66;5098720;28;20024;-82
2021/03/27 07:57:57;;;;;;;2.47;0.77;;;;;;;7.82;39.20;101455.72;5099055;28;20047;-83
2021/03/27 08:00:53;;;;;;;3.20;0.90;;;;;;;7.81;39.19;101444.00;5077470;28;20044;-81
2021/03/27 08:03:40;;;;;;;1.73;0.80;;;;;;;7.84;39.13;101467.41;5086999;28;20098;-83
2021/03/27 08:06:29;;;;;;;2.65;0.70;;;;;;;7.84;39.31;101476.44;5076135;28;20411;-83
2021/03/27 08:09:43;;;;;;;2.53;0.80;;;;;;;7.85;39.10;101470.03;5092041;28;20102;-83
2021/03/27 08:13:12;;;;;;;3.08;1.00;;;;;;;7.77;39.01;101479.69;5014772;28;20042;-83
2021/03/27 08:16:31;;;;;;;4.35;1.50;;;;;;;7.82;39.40;101485.69;5065426;28;20143;-85
2021/03/27 08:19:48;;;;;;;2.97;1.10;;;;;;;7.85;39.50;101488.22;5097615;28;20384;-84
2021/03/27 08:22:59;;;;;;;3.67;1.20;;;;;;;7.85;39.38;101478.22;5089945;28;20395;-84
2021/03/27 08:25:39;;;;;;;4.75;1.42;;;;;;;7.94;39.28;101498.53;5083781;28;20100;-84
2021/03/27 08:28:47;;;;;;;2.58;1.17;;;;;;;7.97;39.06;101511.97;5086408;28;20060;-82
2021/03/27 08:31:38;;;;;;;2.83;1.48;;;;;;;8.07;38.90;101514.94;5097046;28;20059;-84
2021/03/27 08:34:25;;;;;;;3.28;1.20;;;;;;;8.12;38.94;101524.56;5091856;28;20137;-82
2021/03/27 08:40:42;;;;;;;3.50;0.95;;;;;;;8.24;38.73;101528.31;5086338;28;20476;-85
2021/03/27 08:43:24;;;;;;;4.32;1.23;;;;;;;8.28;38.31;101532.63;5111048;28;20130;-82
2021/03/27 08:46:28;;;;;;;2.15;1.00;;;;;;;8.35;38.46;101541.25;5092233;28;20447;-83
2021/03/27 08:49:17;;;;;;;4.38;1.50;;;;;;;8.41;38.52;101530.81;5106323;28;20117;-82
2021/03/27 08:51:59;;;;;;;2.22;0.98;;;;;;;8.46;38.30;101541.47;5080340;28;20058;-83
2021/03/27 08:55:11;;;;;;;5.53;1.10;;;;;;;8.46;37.97;101553.25;5117565;28;20035;-81
2021/03/27 08:58:11;;;;;;;4.78;1.33;;;;;;;8.51;37.71;101556.53;5098761;28;20612;-82
2021/03/27 09:01:06;;;;;;;4.35;1.55;;;;;;;8.56;37.56;101556.22;5101654;28;20056;-83
2021/03/27 09:04:12;;;;;;;6.68;1.50;;;;;;;8.57;37.54;101568.88;5109558;28;20039;-82
2021/03/27 09:07:06;;;;;;;2.92;1.02;;;;;;;8.66;37.59;101573.72;5088884;28;20062;-81
2021/03/27 09:09:52;;;;;;;5.47;1.55;;;;;;;8.64;37.32;101572.97;5101341;28;20118;-77
2021/03/27 09:12:43;;;;;;;3.15;1.50;;;;;;;8.67;37.84;101580.91;5111332;28;20127;-87
2021/03/27 09:15:32;;;;;;;3.35;1.50;;;;;;;8.75;37.53;101589.47;5099211;28;20039;-81
2021/03/27 09:18:14;;;;;;;4.47;1.40;;;;;;;8.78;37.24;101591.13;5068586;28;20052;-77
2021/03/27 09:21:05;;;;;;;5.20;1.67;;;;;;;8.80;37.67;101605.53;5095251;28;20054;-80
2021/03/27 09:23:45;;;;;;;4.35;1.40;;;;;;;8.85;36.91;101596.06;5091442;28;20040;-86
2021/03/27 09:26:47;;;;;;;5.15;1.67;;;;;;;8.85;37.15;101596.06;5085977;28;20055;-79
2021/03/27 09:29:44;;;;;;;2.67;1.00;;;;;;;8.92;36.86;101594.66;5094669;28;20053;-77
2021/03/27 09:32:44;;;;;;;5.85;1.55;;;;;;;8.94;36.47;101583.66;5116311;28;20059;-84
2021/03/27 09:35:41;;;;;;;4.25;1.50;;;;;;;9.00;36.22;101577.75;5095178;28;20056;-78
2021/03/27 09:38:30;;;;;;;4.57;1.48;;;;;;;9.10;36.17;101578.88;5113804;28;20039;-78
2021/03/27 09:41:37;;;;;;;4.30;1.38;;;;;;;9.18;36.23;101583.81;5068809;28;20044;-79
2021/03/27 09:44:18;;;;;;;3.90;1.40;;;;;;;9.22;36.05;101593.53;5082407;28;20482;-85
2021/03/27 09:46:57;;;;;;;5.20;1.50;;;;;;;9.30;35.68;101569.34;5109480;28;20050;-83
2021/03/27 09:49:32;;;;;;;3.22;1.35;;;;;;;9.36;35.73;101583.41;5113281;28;20093;-80
2021/03/27 09:52:17;;;;;;;3.30;1.38;;;;;;;9.47;35.82;101600.88;5074370;28;20048;-83
2021/03/27 09:55:26;;;;;;;4.50;1.40;;;;;;;9.55;35.31;101599.38;5091683;28;20386;-78
2021/03/27 09:57:57;;;;;;;3.65;1.65;;;;;;;9.60;35.41;101593.59;5118115;27;20159;-77
2021/03/27 10:00:54;;;;;;;5.90;1.90;;;;;;;9.65;34.62;101605.94;5089860;28;20411;-81
2021/03/27 10:03:32;;;;;;;4.10;1.30;;;;;;;9.78;34.37;101607.84;5093060;28;20433;-80
2021/03/27 10:06:10;;;;;;;4.40;1.40;;;;;;;9.81;33.79;101613.06;5096657;28;20547;-78
2021/03/27 10:08:42;;;;;;;3.28;1.40;;;;;;;9.87;33.96;101594.41;5112760;27;20094;-78
2021/03/27 10:11:16;;;;;;;2.55;1.20;;;;;;;9.95;34.07;101622.06;5097276;28;20040;-80
2021/03/27 10:13:53;;;;;;;3.65;1.60;;;;;;;10.02;33.44;101612.44;5127244;27;20123;-79
2021/03/27 10:16:26;;;;;;;3.05;1.40;;;;;;;10.11;34.46;101610.91;5083739;28;20126;-79
2021/03/27 10:19:01;;;;;;;3.35;1.10;;;;;;;10.19;33.77;101615.81;5107635;28;20119;-79
2021/03/27 10:21:45;;;;;;;3.67;1.42;;;;;;;10.31;34.05;101617.63;5111311;28;20039;-80
2021/03/27 10:24:27;;;;;;;4.15;1.35;;;;;;;10.40;33.82;101612.34;5113120;28;20093;-74
2021/03/27 10:27:02;;;;;;;4.32;1.45;;;;;;;10.51;35.14;101630.72;5112742;27;20039;-72
2021/03/27 10:29:40;;;;;;;3.75;1.40;;;;;;;10.65;35.51;101629.69;5113387;28;20532;-72
2021/03/27 10:32:52;;;;;;;8.27;1.60;;;;;;;10.74;34.33;101618.94;5112266;28;20467;-72
2021/03/27 10:35:42;;;;;;;4.03;1.40;;;;;;;10.96;34.73;101633.75;5095012;28;20051;-70
2021/03/27 10:38:38;;;;;;;6.50;1.63;;;;;;;11.11;34.30;101638.94;5064031;28;20513;-71
2021/03/27 10:41:15;;;;;;;4.80;1.40;;;;;;;11.24;34.54;101631.56;5111022;27;20176;-70
2021/03/27 10:44:01;;;;;;;4.75;1.30;;;;;;;11.37;33.24;101627.84;5113540;28;20046;-72
2021/03/27 10:46:39;;;;;;;3.22;1.08;;;;;;;11.46;33.86;101635.34;5113381;28;20046;-71
2021/03/27 10:49:27;;;;;;;3.85;1.27;;;;;;;11.51;32.46;101630.41;5097012;28;20546;-79
2021/03/27 10:52:34;;;;;;;3.95;1.73;;;;;;;11.53;32.24;101633.88;5114684;28;20043;-81
2021/03/27 10:55:43;;;;;;;4.53;1.40;;;;;;;11.53;31.70;101662.16;5113092;27;20494;-80
2021/03/27 10:58:25;;;;;;;7.15;1.83;;;;;;;11.49;31.09;101657.03;5088219;28;20043;-80
2021/03/27 11:01:18;;;;;;;4.57;1.38;;;;;;;11.44;31.43;101668.34;5093405;28;20043;-79
2021/03/27 11:04:29;;;;;;;4.70;1.60;;;;;;;11.38;30.77;101646.91;5099710;28;20050;-81
2021/03/27 11:07:33;;;;;;;4.95;1.50;;;;;;;11.33;31.11;101665.56;5116949;27;20085;-80
2021/03/27 11:10:17;;;;;;;;;;;;;;;11.01;31.54;101668.03;5091537;28;20543;-79
2021/03/27 11:13:11;;;;;;;4.50;1.65;;;;;;;11.26;31.48;101673.41;5081219;28;20256;-79
2021/03/27 11:16:13;;;;;;;3.58;1.33;;;;;;;11.21;30.97;101683.81;5088041;28;20125;-80
2021/03/27 11:19:04;;;;;;;4.20;2.22;;;;;;;11.23;31.58;101681.84;5102665;28;20554;-80
2021/03/27 11:22:00;;;;;;;2.95;1.40;;;;;;;11.25;31.64;101677.13;5092772;28;20038;-80
2021/03/27 11:24:42;;;;;;;3.90;1.55;;;;;;;11.21;30.76;101692.03;5093903;27;20036;-80
2021/03/27 11:27:26;;;;;;;5.40;1.90;;;;;;;11.25;30.28;101685.34;5098663;28;20461;-81
2021/03/27 11:30:02;;;;;;;3.15;1.38;;;;;;;11.29;30.14;101683.22;5098717;27;20121;-80
2021/03/27 11:32:43;;;;;;;4.57;1.55;;;;;;;11.36;31.09;101687.22;5101726;28;20048;-81
2021/03/27 11:35:20;;;;;;;4.95;1.63;;;;;;;11.40;29.48;101686.03;5114103;28;20119;-82
2021/03/27 11:38:03;;;;;;;3.35;1.35;;;;;;;11.48;29.67;101699.13;5120410;27;20042;-81
2021/03/27 11:40:39;;;;;;;2.50;1.40;;;;;;;11.50;29.75;101688.94;5077898;28;20467;-82
2021/03/27 11:43:32;;;;;;;3.17;1.30;;;;;;;11.60;29.70;101707.28;5096992;28;20047;-82
2021/03/27 11:46:06;;;;;;;3.50;1.30;;;;;;;11.66;29.39;101714.16;5113146;27;20117;-81
2021/03/27 11:48:44;;;;;;;4.32;1.50;;;;;;;11.75;29.59;101709.81;5082622;28;20130;-81
2021/03/27 11:51:18;;;;;;;4.05;1.45;;;;;;;11.75;29.81;101721.66;5107741;27;20158;-81
2021/03/27 11:54:01;;;;;;;4.57;1.60;;;;;;;11.83;29.71;101738.41;5107331;28;20043;-83
2021/03/27 11:56:41;;;;;;;4.88;1.40;;;;;;;11.82;28.91;101755.84;5065714;28;20472;-81
2021/03/27 12:02:19;;;;;;;2.58;1.08;;;;;;;11.79;29.62;101775.25;5063304;28;20487;-82
2021/03/27 12:04:55;;;;;;;2.47;1.23;;;;;;;11.75;28.91;101771.00;5103489;28;20052;-83
2021/03/27 12:07:33;;;;;;;3.25;1.40;;;;;;;11.70;29.83;101767.72;5097608;28;20100;-81
2021/03/27 12:10:06;;;;;;;2.70;1.00;;;;;;;11.68;30.18;101775.22;5089460;28;20039;-83
2021/03/27 12:12:36;;;;;;;;;;;;;;;11.39;30.24;101769.19;5094867;28;20046;-81
2021/03/27 12:15:16;;;;;;;2.08;1.15;;;;;;;11.62;29.65;101762.84;5118962;28;19920;-82
2021/03/27 12:17:56;;;;;;;4.05;1.40;;;;;;;11.64;29.50;101760.84;5103187;28;20048;-81
2021/03/27 12:20:38;;;;;;;3.67;1.70;;;;;;;11.68;29.04;101763.38;5107293;28;20043;-81
2021/03/27 12:23:19;;;;;;;3.80;1.40;;;;;;;11.64;28.54;101752.63;5102792;28;20028;-81
2021/03/27 12:25:56;;;;;;;3.45;1.60;;;;;;;11.70;29.22;101770.47;5080633;28;20051;-81
2021/03/27 12:28:35;;;;;;;4.18;1.45;;;;;;;11.75;29.61;101778.34;5094954;28;20114;-81
2021/03/27 12:31:14;;;;;;;5.93;1.83;;;;;;;11.80;28.78;101777.00;5117436;28;20035;-81
2021/03/27 12:34:00;;;;;;;3.33;1.60;;;;;;;11.83;26.94;101787.75;5113846;28;20040;-81
2021/03/27 12:36:38;;;;;;;3.72;1.30;;;;;;;11.89;28.06;101792.75;5114087;27;20044;-81
2021/03/27 12:39:28;;;;;;;3.33;1.20;;;;;;;11.94;27.40;101778.69;5065990;28;20047;-80
2021/03/27 12:42:05;;;;;;;2.28;1.15;;;;;;;12.03;27.66;101788.94;5107244;28;20036;-81
2021/03/27 12:44:38;;;;;;;3.30;1.20;;;;;;;12.08;28.79;101778.53;5112632;28;20142;-81
2021/03/27 12:47:54;;;;;;;2.70;1.50;;;;;;;12.06;26.00;101777.75;5115578;28;20065;-81
2021/03/27 12:50:41;;;;;;;2.58;1.02;;;;;;;12.20;27.15;101795.88;5076339;28;20051;-81
2021/03/27 12:53:46;;;;;;;3.70;1.52;;;;;;;12.26;27.08;101792.66;5100617;28;20113;-84
2021/03/27 12:56:31;;;;;;;2.83;1.40;;;;;;;12.31;27.00;101810.50;5094091;28;20040;-83
2021/03/27 12:59:12;;;;;;;2.33;1.15;;;;;;;12.39;26.95;101804.41;5080380;28;20533;-82
2021/03/27 13:01:54;;;;;;;1.98;1.20;;;;;;;12.43;26.51;101809.50;5114517;28;20118;-88
2021/03/27 13:04:38;;;;;;;1.80;1.20;;;;;;;12.48;27.66;101813.78;5104193;28;20040;-84